ETD456 KIAD-OMAA
Flight info
| Callsign | ETD456 |
|---|---|
| Flight time | N/A |
| Altitude | 29000 |
| Route | JCOBY4 SWANN DCT BROSS Q419 RBV Q22 FOXWD DCT WITCH DCT ALLEX N565B TUDEP/M082F290 NATT NETKI/N0479F290 DCT CON DCT MORAG DCT NUCHU DCT BOGNA UL612 XAMAB DCT VEULE DCT INPAX DCT RESMI DCT ODEBU DCT OGULO DCT OKASI DCT OKEKO DCT MOU DCT MADIV DCT MOKIP DCT TUFTA DCT KOGAS DCT MEDAM DCT NITAM DCT MOGBO DCT BELIX DCT SALUN N705 MMA P751 DASUM Y234 FYM M872 BDB Y214 RAPMA DCT KUVSO DCT KATIT DCT DANUX DCT TANSU G783 VAVIM P899 ROVOS |
| Aircraft | B77W/H-SDE1E2E3FGHIJ2J3J4J5M1RWXY/LB1D1 |
Departure
| Time | 2026-05-06 00:16 |
|---|---|
| Airport | Washington Dulles International Airport (KIAD) |
Arrival
| Time | N/A |
|---|---|
| Airport | Zayed International Airport (OMAA) |
| Time | Latitude | Longitude | Altitude | Speed | Heading |
|---|---|---|---|---|---|
| 2026-05-05 23:48 | 38.94937 | -77.44641 | 301 ft | 0 kts | 221° |
| 2026-05-06 00:03 | 38.94940 | -77.44638 | 301 ft | 1 kts | 221° |
| 2026-05-06 00:03 | 38.94957 | -77.44620 | 300 ft | 4 kts | 208° |
| 2026-05-06 00:04 | 38.94980 | -77.44609 | 299 ft | 4 kts | 182° |
| 2026-05-06 00:04 | 38.95004 | -77.44614 | 300 ft | 4 kts | 150° |
| 2026-05-06 00:04 | 38.95022 | -77.44634 | 300 ft | 4 kts | 114° |
| 2026-05-06 00:04 | 38.95026 | -77.44653 | 300 ft | 0 kts | 90° |
| 2026-05-06 00:08 | 38.95026 | -77.44636 | 301 ft | 5 kts | 90° |
| 2026-05-06 00:08 | 38.95026 | -77.44578 | 298 ft | 7 kts | 91° |
| 2026-05-06 00:08 | 38.95025 | -77.44509 | 297 ft | 10 kts | 90° |
| 2026-05-06 00:08 | 38.95024 | -77.44391 | 297 ft | 12 kts | 90° |
| 2026-05-06 00:09 | 38.95023 | -77.44278 | 297 ft | 13 kts | 91° |
| 2026-05-06 00:09 | 38.95022 | -77.44162 | 297 ft | 13 kts | 91° |
| 2026-05-06 00:09 | 38.95021 | -77.44046 | 297 ft | 12 kts | 91° |
| 2026-05-06 00:09 | 38.95012 | -77.43938 | 299 ft | 11 kts | 93° |
| 2026-05-06 00:10 | 38.95023 | -77.43872 | 301 ft | 7 kts | 48° |
| 2026-05-06 00:10 | 38.95071 | -77.43858 | 300 ft | 10 kts | 0° |
| 2026-05-06 00:10 | 38.95151 | -77.43857 | 300 ft | 12 kts | 0° |
| 2026-05-06 00:10 | 38.95233 | -77.43856 | 301 ft | 12 kts | 0° |
| 2026-05-06 00:11 | 38.95314 | -77.43855 | 301 ft | 12 kts | 0° |
| 2026-05-06 00:11 | 38.95396 | -77.43854 | 301 ft | 12 kts | 0° |
| 2026-05-06 00:11 | 38.95462 | -77.43850 | 303 ft | 8 kts | 12° |
| 2026-05-06 00:11 | 38.95486 | -77.43793 | 301 ft | 6 kts | 87° |
| 2026-05-06 00:12 | 38.95485 | -77.43759 | 301 ft | 2 kts | 91° |
| 2026-05-06 00:12 | 38.95485 | -77.43753 | 300 ft | 0 kts | 91° |
| 2026-05-06 00:14 | 38.95485 | -77.43751 | 300 ft | 1 kts | 91° |
| 2026-05-06 00:14 | 38.95485 | -77.43699 | 301 ft | 8 kts | 90° |
| 2026-05-06 00:15 | 38.95483 | -77.43630 | 303 ft | 7 kts | 101° |
| 2026-05-06 00:15 | 38.95440 | -77.43602 | 304 ft | 7 kts | 175° |
| 2026-05-06 00:15 | 38.95436 | -77.43602 | 304 ft | 0 kts | 177° |
| 2026-05-06 00:15 | 38.95213 | -77.43603 | 304 ft | 71 kts | 180° |
| 2026-05-06 00:16 | 38.94458 | -77.43613 | 306 ft | 145 kts | 180° |
| 2026-05-06 00:16 | 38.93232 | -77.43629 | 391 ft | 198 kts | 180° |
| 2026-05-06 00:16 | 38.91843 | -77.43591 | 1233 ft | 196 kts | 180° |
| 2026-05-06 00:16 | 38.90534 | -77.43590 | 2031 ft | 181 kts | 194° |
| 2026-05-06 00:17 | 38.89425 | -77.44184 | 2410 ft | 172 kts | 218° |
| 2026-05-06 00:17 | 38.88580 | -77.45307 | 2567 ft | 178 kts | 229° |
| 2026-05-06 00:17 | 38.87787 | -77.46533 | 2856 ft | 181 kts | 229° |
| 2026-05-06 00:17 | 38.86960 | -77.47852 | 2904 ft | 196 kts | 229° |
| 2026-05-06 00:18 | 38.86098 | -77.49236 | 2969 ft | 204 kts | 229° |
| 2026-05-06 00:18 | 38.85184 | -77.50696 | 2965 ft | 216 kts | 230° |
| 2026-05-06 00:18 | 38.84209 | -77.52242 | 3019 ft | 228 kts | 229° |
| 2026-05-06 00:18 | 38.83208 | -77.53835 | 3009 ft | 230 kts | 229° |
| 2026-05-06 00:19 | 38.82288 | -77.55513 | 3051 ft | 231 kts | 247° |
| 2026-05-06 00:19 | 38.82083 | -77.57601 | 3404 ft | 250 kts | 275° |
| 2026-05-06 00:19 | 38.82763 | -77.59702 | 3808 ft | 273 kts | 301° |
| 2026-05-06 00:19 | 38.84263 | -77.61370 | 4239 ft | 292 kts | 325° |
| 2026-05-06 00:20 | 38.86101 | -77.62554 | 4784 ft | 298 kts | 328° |
| 2026-05-06 00:20 | 38.87956 | -77.63669 | 5437 ft | 298 kts | 329° |
| 2026-05-06 00:20 | 38.89813 | -77.64770 | 6224 ft | 292 kts | 329° |
| 2026-05-06 00:20 | 38.91656 | -77.65855 | 6847 ft | 291 kts | 329° |
| 2026-05-06 00:21 | 38.93501 | -77.66938 | 7416 ft | 291 kts | 330° |
| 2026-05-06 00:21 | 38.95329 | -77.68023 | 8042 ft | 289 kts | 330° |
| 2026-05-06 00:21 | 38.97291 | -77.68737 | 8310 ft | 305 kts | 358° |
| 2026-05-06 00:21 | 38.99388 | -77.68088 | 8633 ft | 321 kts | 29° |
| 2026-05-06 00:22 | 39.01030 | -77.66150 | 9089 ft | 324 kts | 56° |
| 2026-05-06 00:22 | 39.02193 | -77.63663 | 9604 ft | 326 kts | 60° |
| 2026-05-06 00:22 | 39.03291 | -77.61086 | 10093 ft | 330 kts | 61° |
| 2026-05-06 00:22 | 39.04397 | -77.58417 | 10262 ft | 348 kts | 62° |
| 2026-05-06 00:23 | 39.05556 | -77.55600 | 10396 ft | 365 kts | 62° |
| 2026-05-06 00:23 | 39.06774 | -77.52642 | 10537 ft | 383 kts | 62° |
| 2026-05-06 00:23 | 39.08052 | -77.49552 | 10816 ft | 396 kts | 62° |
| 2026-05-06 00:23 | 39.09362 | -77.46393 | 11279 ft | 404 kts | 62° |
| 2026-05-06 00:24 | 39.10696 | -77.43185 | 11797 ft | 409 kts | 62° |
| 2026-05-06 00:24 | 39.12048 | -77.39937 | 12410 ft | 413 kts | 62° |
| 2026-05-06 00:24 | 39.13408 | -77.36665 | 13029 ft | 416 kts | 62° |
| 2026-05-06 00:24 | 39.14683 | -77.33310 | 13542 ft | 419 kts | 70° |
| 2026-05-06 00:25 | 39.15319 | -77.29632 | 13965 ft | 424 kts | 88° |
| 2026-05-06 00:25 | 39.15202 | -77.25851 | 14498 ft | 423 kts | 103° |
| 2026-05-06 00:25 | 39.14534 | -77.22174 | 14993 ft | 423 kts | 107° |
| 2026-05-06 00:25 | 39.13850 | -77.18520 | 15495 ft | 428 kts | 106° |
| 2026-05-06 00:26 | 39.13207 | -77.14767 | 16017 ft | 432 kts | 104° |
| 2026-05-06 00:26 | 39.12600 | -77.10912 | 16565 ft | 435 kts | 104° |
| 2026-05-06 00:26 | 39.12002 | -77.07073 | 17079 ft | 439 kts | 104° |
| 2026-05-06 00:26 | 39.11390 | -77.03208 | 17590 ft | 443 kts | 104° |
| 2026-05-06 00:27 | 39.10888 | -76.99270 | 18096 ft | 449 kts | 99° |
| 2026-05-06 00:27 | 39.10706 | -76.95293 | 18530 ft | 455 kts | 91° |
| 2026-05-06 00:27 | 39.10813 | -76.91210 | 18978 ft | 458 kts | 90° |
| 2026-05-06 00:27 | 39.10951 | -76.87105 | 19435 ft | 461 kts | 90° |
| 2026-05-06 00:28 | 39.11083 | -76.82968 | 19867 ft | 463 kts | 90° |
| 2026-05-06 00:28 | 39.11204 | -76.78809 | 20332 ft | 466 kts | 90° |
| 2026-05-06 00:28 | 39.11313 | -76.74624 | 20773 ft | 469 kts | 91° |
| 2026-05-06 00:28 | 39.11416 | -76.70413 | 21206 ft | 472 kts | 91° |
| 2026-05-06 00:29 | 39.11517 | -76.66175 | 21572 ft | 475 kts | 91° |
| 2026-05-06 00:29 | 39.11616 | -76.61906 | 21994 ft | 478 kts | 91° |
| 2026-05-06 00:29 | 39.11716 | -76.57613 | 22419 ft | 481 kts | 91° |
| 2026-05-06 00:29 | 39.11820 | -76.53293 | 22833 ft | 484 kts | 90° |
| 2026-05-06 00:30 | 39.12119 | -76.48955 | 23211 ft | 489 kts | 84° |
| 2026-05-06 00:30 | 39.12624 | -76.44614 | 23580 ft | 492 kts | 83° |
| 2026-05-06 00:30 | 39.13147 | -76.40247 | 23926 ft | 494 kts | 83° |
| 2026-05-06 00:30 | 39.13661 | -76.35864 | 24281 ft | 496 kts | 83° |
| 2026-05-06 00:31 | 39.14160 | -76.31456 | 24631 ft | 498 kts | 83° |
| 2026-05-06 00:31 | 39.14649 | -76.27031 | 24972 ft | 500 kts | 83° |
| 2026-05-06 00:31 | 39.15137 | -76.22588 | 25308 ft | 502 kts | 83° |
| 2026-05-06 00:31 | 39.15641 | -76.18141 | 25626 ft | 502 kts | 83° |
| 2026-05-06 00:32 | 39.16167 | -76.13716 | 25848 ft | 496 kts | 82° |
| 2026-05-06 00:32 | 39.16681 | -76.09313 | 25975 ft | 499 kts | 83° |
| 2026-05-06 00:32 | 39.17191 | -76.04855 | 26128 ft | 506 kts | 82° |
| 2026-05-06 00:32 | 39.17705 | -76.00356 | 26347 ft | 510 kts | 82° |
| 2026-05-06 00:33 | 39.18223 | -75.95832 | 26681 ft | 510 kts | 82° |
| 2026-05-06 00:33 | 39.19064 | -75.91392 | 26918 ft | 513 kts | 68° |
| 2026-05-06 00:33 | 39.20677 | -75.87295 | 27149 ft | 513 kts | 55° |
| 2026-05-06 00:33 | 39.22891 | -75.83707 | 27463 ft | 511 kts | 42° |
| 2026-05-06 00:34 | 39.25567 | -75.80731 | 27733 ft | 508 kts | 36° |
| 2026-05-06 00:34 | 39.28322 | -75.77867 | 27956 ft | 511 kts | 36° |
| 2026-05-06 00:34 | 39.31076 | -75.74949 | 28225 ft | 512 kts | 37° |
| 2026-05-06 00:34 | 39.33807 | -75.71994 | 28523 ft | 513 kts | 37° |
| 2026-05-06 00:35 | 39.36531 | -75.69004 | 28804 ft | 514 kts | 38° |
| 2026-05-06 00:35 | 39.41083 | -75.63979 | 28903 ft | 520 kts | 38° |
| 2026-05-06 00:36 | 39.46571 | -75.57932 | 28890 ft | 515 kts | 37° |
| 2026-05-06 00:36 | 39.52024 | -75.51941 | 28905 ft | 514 kts | 37° |
| 2026-05-06 00:37 | 39.57476 | -75.45937 | 28915 ft | 515 kts | 37° |
| 2026-05-06 00:37 | 39.62932 | -75.39912 | 28902 ft | 515 kts | 37° |
| 2026-05-06 00:38 | 39.68383 | -75.33887 | 28903 ft | 515 kts | 37° |
| 2026-05-06 00:38 | 39.73832 | -75.27851 | 28898 ft | 515 kts | 37° |
| 2026-05-06 00:39 | 39.79239 | -75.21750 | 28891 ft | 516 kts | 40° |
| 2026-05-06 00:39 | 39.83967 | -75.14941 | 28889 ft | 500 kts | 49° |
| 2026-05-06 00:40 | 39.88251 | -75.07909 | 28898 ft | 490 kts | 49° |
| 2026-05-06 00:40 | 39.92453 | -75.01020 | 28900 ft | 487 kts | 49° |
| 2026-05-06 00:41 | 39.96677 | -74.94142 | 28914 ft | 485 kts | 49° |
| 2026-05-06 00:41 | 40.00899 | -74.87283 | 28918 ft | 485 kts | 49° |
| 2026-05-06 00:42 | 40.05125 | -74.80408 | 28921 ft | 486 kts | 49° |
| 2026-05-06 00:42 | 40.09359 | -74.73500 | 28899 ft | 488 kts | 49° |